sensor_id;sensor_type;location;lat;lon;timestamp;pressure;altitude;pressure_sealevel;temperature;humidity
35307;BME280;21420;52.196;21.416;2023-03-24T00:00:26;99524.67;;;12.21;57.24
35307;BME280;21420;52.196;21.416;2023-03-24T00:02:54;99521.24;;;12.18;57.36
35307;BME280;21420;52.196;21.416;2023-03-24T00:05:22;99526.11;;;12.13;57.34
35307;BME280;21420;52.196;21.416;2023-03-24T00:07:49;99527.20;;;12.08;57.09
35307;BME280;21420;52.196;21.416;2023-03-24T00:10:20;99526.67;;;12.05;57.41
35307;BME280;21420;52.196;21.416;2023-03-24T00:12:49;99523.59;;;12.03;57.42
35307;BME280;21420;52.196;21.416;2023-03-24T00:15:18;99523.63;;;12.01;57.55
35307;BME280;21420;52.196;21.416;2023-03-24T00:17:47;99523.78;;;12.00;57.56
35307;BME280;21420;52.196;21.416;2023-03-24T00:20:20;99524.30;;;12.02;57.68
35307;BME280;21420;52.196;21.416;2023-03-24T00:22:50;99526.04;;;12.04;57.69
35307;BME280;21420;52.196;21.416;2023-03-24T00:25:26;99529.18;;;12.05;57.54
35307;BME280;21420;52.196;21.416;2023-03-24T00:27:59;99535.73;;;12.07;57.62
35307;BME280;21420;52.196;21.416;2023-03-24T00:30:27;99531.14;;;12.10;57.80
35307;BME280;21420;52.196;21.416;2023-03-24T00:32:55;99531.79;;;12.11;57.68
35307;BME280;21420;52.196;21.416;2023-03-24T00:35:24;99533.14;;;12.12;57.84
35307;BME280;21420;52.196;21.416;2023-03-24T00:37:52;99533.16;;;12.13;57.81
35307;BME280;21420;52.196;21.416;2023-03-24T00:40:20;99535.73;;;12.12;57.94
35307;BME280;21420;52.196;21.416;2023-03-24T00:42:49;99535.39;;;12.10;57.79
35307;BME280;21420;52.196;21.416;2023-03-24T00:45:19;99534.34;;;12.08;57.66
35307;BME280;21420;52.196;21.416;2023-03-24T00:47:49;99536.30;;;12.08;57.74
35307;BME280;21420;52.196;21.416;2023-03-24T00:50:21;99536.34;;;12.06;57.88
35307;BME280;21420;52.196;21.416;2023-03-24T00:52:59;99532.00;;;12.04;57.84
35307;BME280;21420;52.196;21.416;2023-03-24T00:55:27;99527.33;;;12.01;57.93
35307;BME280;21420;52.196;21.416;2023-03-24T00:57:55;99526.91;;;11.96;57.78
35307;BME280;21420;52.196;21.416;2023-03-24T01:00:24;99524.67;;;11.89;57.85
35307;BME280;21420;52.196;21.416;2023-03-24T01:02:54;99523.61;;;11.83;57.85
35307;BME280;21420;52.196;21.416;2023-03-24T01:05:26;99523.98;;;11.77;57.79
35307;BME280;21420;52.196;21.416;2023-03-24T01:07:56;99520.80;;;11.71;57.82
35307;BME280;21420;52.196;21.416;2023-03-24T01:10:25;99517.67;;;11.63;57.81
35307;BME280;21420;52.196;21.416;2023-03-24T01:12:57;99516.64;;;11.53;57.94
35307;BME280;21420;52.196;21.416;2023-03-24T01:15:31;99516.16;;;11.45;57.90
35307;BME280;21420;52.196;21.416;2023-03-24T01:17:59;99515.92;;;11.39;57.96
35307;BME280;21420;52.196;21.416;2023-03-24T01:20:30;99516.77;;;11.36;58.11
35307;BME280;21420;52.196;21.416;2023-03-24T01:23:03;99517.48;;;11.32;58.08
35307;BME280;21420;52.196;21.416;2023-03-24T01:25:35;99517.16;;;11.27;58.16
35307;BME280;21420;52.196;21.416;2023-03-24T01:28:03;99518.96;;;11.23;58.33
35307;BME280;21420;52.196;21.416;2023-03-24T01:30:30;99519.34;;;11.19;58.31
35307;BME280;21420;52.196;21.416;2023-03-24T01:32:57;99514.00;;;11.14;58.41
35307;BME280;21420;52.196;21.416;2023-03-24T01:35:25;99515.88;;;11.11;58.28
35307;BME280;21420;52.196;21.416;2023-03-24T01:37:56;99516.84;;;11.08;58.33
35307;BME280;21420;52.196;21.416;2023-03-24T01:40:27;99511.39;;;11.05;58.53
35307;BME280;21420;52.196;21.416;2023-03-24T01:42:55;99510.80;;;11.03;58.53
35307;BME280;21420;52.196;21.416;2023-03-24T01:53:49;99517.30;;;10.85;58.62
35307;BME280;21420;52.196;21.416;2023-03-24T01:56:17;99518.30;;;10.81;58.59
35307;BME280;21420;52.196;21.416;2023-03-24T01:58:54;99520.83;;;10.78;58.58
35307;BME280;21420;52.196;21.416;2023-03-24T02:01:38;99523.61;;;10.73;58.65
35307;BME280;21420;52.196;21.416;2023-03-24T02:04:36;99515.16;;;10.65;58.66
35307;BME280;21420;52.196;21.416;2023-03-24T02:09:41;99513.98;;;10.49;58.69
35307;BME280;21420;52.196;21.416;2023-03-24T02:12:08;99510.38;;;10.41;58.74
35307;BME280;21420;52.196;21.416;2023-03-24T02:14:35;99507.32;;;10.34;58.78
35307;BME280;21420;52.196;21.416;2023-03-24T02:28:00;99497.27;;;10.00;59.02
35307;BME280;21420;52.196;21.416;2023-03-24T02:47:24;99487.56;;;9.47;59.25
35307;BME280;21420;52.196;21.416;2023-03-24T02:50:56;99489.91;;;9.42;59.33
35307;BME280;21420;52.196;21.416;2023-03-24T02:55:39;99493.62;;;9.29;59.46
35307;BME280;21420;52.196;21.416;2023-03-24T02:58:18;99497.31;;;9.25;59.57
35307;BME280;21420;52.196;21.416;2023-03-24T03:00:59;99499.30;;;9.20;59.72
35307;BME280;21420;52.196;21.416;2023-03-24T03:03:53;99498.52;;;9.14;59.67
35307;BME280;21420;52.196;21.416;2023-03-24T03:06:28;99498.64;;;9.10;59.75
35307;BME280;21420;52.196;21.416;2023-03-24T03:09:02;99503.06;;;9.06;59.78
35307;BME280;21420;52.196;21.416;2023-03-24T03:11:31;99498.68;;;9.03;59.92
35307;BME280;21420;52.196;21.416;2023-03-24T03:14:01;99493.27;;;9.00;59.98
35307;BME280;21420;52.196;21.416;2023-03-24T03:16:38;99486.71;;;8.94;60.02
35307;BME280;21420;52.196;21.416;2023-03-24T03:19:29;99489.76;;;8.85;60.11
35307;BME280;21420;52.196;21.416;2023-03-24T03:21:58;99493.45;;;8.79;60.19
35307;BME280;21420;52.196;21.416;2023-03-24T03:24:31;99497.88;;;8.72;60.08
35307;BME280;21420;52.196;21.416;2023-03-24T03:27:04;99502.64;;;8.65;60.07
35307;BME280;21420;52.196;21.416;2023-03-24T03:29:38;99504.51;;;8.60;60.14
35307;BME280;21420;52.196;21.416;2023-03-24T03:32:08;99505.07;;;8.55;60.25
35307;BME280;21420;52.196;21.416;2023-03-24T03:37:35;99498.13;;;8.53;60.51
35307;BME280;21420;52.196;21.416;2023-03-24T03:40:24;99503.96;;;8.52;60.56
35307;BME280;21420;52.196;21.416;2023-03-24T03:42:57;99505.92;;;8.47;60.56
35307;BME280;21420;52.196;21.416;2023-03-24T03:45:24;99503.40;;;8.44;60.58
35307;BME280;21420;52.196;21.416;2023-03-24T03:47:52;99508.79;;;8.42;60.74
35307;BME280;21420;52.196;21.416;2023-03-24T03:50:19;99512.88;;;8.43;60.83
35307;BME280;21420;52.196;21.416;2023-03-24T03:52:46;99513.14;;;8.44;60.97
35307;BME280;21420;52.196;21.416;2023-03-24T03:55:13;99512.73;;;8.46;60.99
35307;BME280;21420;52.196;21.416;2023-03-24T03:57:41;99511.55;;;8.46;61.03
35307;BME280;21420;52.196;21.416;2023-03-24T04:00:17;99510.23;;;8.45;61.03
35307;BME280;21420;52.196;21.416;2023-03-24T04:05:53;99506.91;;;8.40;61.25
35307;BME280;21420;52.196;21.416;2023-03-24T04:08:48;99502.48;;;8.36;61.14
35307;BME280;21420;52.196;21.416;2023-03-24T04:15:06;99501.70;;;8.30;61.35
35307;BME280;21420;52.196;21.416;2023-03-24T04:17:59;99506.79;;;8.31;61.49
35307;BME280;21420;52.196;21.416;2023-03-24T04:32:03;99506.75;;;8.27;61.66
35307;BME280;21420;52.196;21.416;2023-03-24T04:34:41;99503.18;;;8.23;61.67
35307;BME280;21420;52.196;21.416;2023-03-24T04:37:26;99499.30;;;8.18;61.57
35307;BME280;21420;52.196;21.416;2023-03-24T04:40:10;99495.54;;;8.13;61.66
35307;BME280;21420;52.196;21.416;2023-03-24T04:42:50;99496.77;;;8.10;61.66
35307;BME280;21420;52.196;21.416;2023-03-24T04:45:31;99498.78;;;8.07;61.70
35307;BME280;21420;52.196;21.416;2023-03-24T04:48:18;99498.08;;;8.05;61.84
35307;BME280;21420;52.196;21.416;2023-03-24T04:51:06;99500.33;;;8.02;61.81
35307;BME280;21420;52.196;21.416;2023-03-24T04:54:00;99494.52;;;7.98;61.80
35307;BME280;21420;52.196;21.416;2023-03-24T04:56:54;99489.79;;;7.96;61.95
35307;BME280;21420;52.196;21.416;2023-03-24T04:59:30;99485.56;;;7.96;62.05
35307;BME280;21420;52.196;21.416;2023-03-24T05:02:02;99481.88;;;7.98;62.14
35307;BME280;21420;52.196;21.416;2023-03-24T05:04:36;99478.14;;;8.00;62.20
35307;BME280;21420;52.196;21.416;2023-03-24T05:07:10;99477.85;;;8.03;62.24
35307;BME280;21420;52.196;21.416;2023-03-24T05:09:37;99479.06;;;8.07;62.22
35307;BME280;21420;52.196;21.416;2023-03-24T05:12:04;99481.82;;;8.10;62.28
35307;BME280;21420;52.196;21.416;2023-03-24T05:14:42;99482.08;;;8.18;62.37
35307;BME280;21420;52.196;21.416;2023-03-24T05:17:08;99473.92;;;8.27;62.48
35307;BME280;21420;52.196;21.416;2023-03-24T05:19:36;99474.53;;;8.36;62.48
35307;BME280;21420;52.196;21.416;2023-03-24T05:22:03;99472.10;;;8.46;62.55
35307;BME280;21420;52.196;21.416;2023-03-24T05:24:30;99464.44;;;8.55;62.59
35307;BME280;21420;52.196;21.416;2023-03-24T05:26:57;99461.16;;;8.65;62.69
35307;BME280;21420;52.196;21.416;2023-03-24T05:29:25;99455.54;;;8.76;62.72
35307;BME280;21420;52.196;21.416;2023-03-24T05:31:53;99455.19;;;8.85;62.75
35307;BME280;21420;52.196;21.416;2023-03-24T05:34:21;99455.84;;;8.92;62.70
35307;BME280;21420;52.196;21.416;2023-03-24T05:37:11;99455.04;;;8.97;62.62
35307;BME280;21420;52.196;21.416;2023-03-24T05:39:40;99459.67;;;8.98;62.52
35307;BME280;21420;52.196;21.416;2023-03-24T05:42:16;99459.97;;;8.97;62.53
35307;BME280;21420;52.196;21.416;2023-03-24T05:44:43;99459.91;;;8.97;62.49
35307;BME280;21420;52.196;21.416;2023-03-24T05:47:17;99458.99;;;9.02;62.58
35307;BME280;21420;52.196;21.416;2023-03-24T05:49:45;99455.95;;;9.10;62.71
35307;BME280;21420;52.196;21.416;2023-03-24T05:52:13;99459.73;;;9.19;62.77
35307;BME280;21420;52.196;21.416;2023-03-24T05:54:43;99452.85;;;9.31;62.92
35307;BME280;21420;52.196;21.416;2023-03-24T05:57:18;99450.89;;;9.45;63.09
35307;BME280;21420;52.196;21.416;2023-03-24T06:00:06;99447.73;;;9.59;63.05
35307;BME280;21420;52.196;21.416;2023-03-24T06:02:43;99441.42;;;9.72;62.97
35307;BME280;21420;52.196;21.416;2023-03-24T06:05:31;99445.29;;;9.87;63.02
35307;BME280;21420;52.196;21.416;2023-03-24T06:07:59;99445.92;;;9.96;62.93
35307;BME280;21420;52.196;21.416;2023-03-24T06:10:29;99442.91;;;10.02;62.84
35307;BME280;21420;52.196;21.416;2023-03-24T06:12:56;99444.24;;;10.08;62.91
35307;BME280;21420;52.196;21.416;2023-03-24T06:15:23;99442.73;;;10.16;62.95
35307;BME280;21420;52.196;21.416;2023-03-24T06:17:57;99441.94;;;10.26;63.08
35307;BME280;21420;52.196;21.416;2023-03-24T06:20:33;99445.77;;;10.40;63.03
35307;BME280;21420;52.196;21.416;2023-03-24T06:23:04;99451.58;;;10.52;62.97
35307;BME280;21420;52.196;21.416;2023-03-24T06:25:37;99450.33;;;10.58;63.03
35307;BME280;21420;52.196;21.416;2023-03-24T06:28:30;99448.44;;;10.66;62.81
35307;BME280;21420;52.196;21.416;2023-03-24T06:31:05;99446.66;;;10.73;62.97
35307;BME280;21420;52.196;21.416;2023-03-24T06:33:34;99446.90;;;10.82;62.98
35307;BME280;21420;52.196;21.416;2023-03-24T06:36:01;99447.21;;;10.90;62.93
35307;BME280;21420;52.196;21.416;2023-03-24T06:38:30;99448.23;;;10.98;63.15
35307;BME280;21420;52.196;21.416;2023-03-24T06:41:01;99447.56;;;11.07;63.18
35307;BME280;21420;52.196;21.416;2023-03-24T06:43:30;99447.71;;;11.15;62.99
35307;BME280;21420;52.196;21.416;2023-03-24T06:45:57;99440.70;;;11.21;62.96
35307;BME280;21420;52.196;21.416;2023-03-24T06:48:26;99442.15;;;11.28;62.83
35307;BME280;21420;52.196;21.416;2023-03-24T06:50:58;99438.83;;;11.34;62.91
35307;BME280;21420;52.196;21.416;2023-03-24T06:53:26;99441.75;;;11.39;62.93
35307;BME280;21420;52.196;21.416;2023-03-24T06:55:53;99445.92;;;11.45;62.83
35307;BME280;21420;52.196;21.416;2023-03-24T06:58:22;99446.18;;;11.51;62.97
35307;BME280;21420;52.196;21.416;2023-03-24T07:01:00;99440.89;;;11.57;62.89
35307;BME280;21420;52.196;21.416;2023-03-24T07:03:32;99439.96;;;11.63;63.04
35307;BME280;21420;52.196;21.416;2023-03-24T07:06:18;99439.85;;;11.70;63.00
35307;BME280;21420;52.196;21.416;2023-03-24T07:08:52;99439.72;;;11.76;62.85
35307;BME280;21420;52.196;21.416;2023-03-24T07:11:20;99442.49;;;11.83;63.00
35307;BME280;21420;52.196;21.416;2023-03-24T07:13:50;99441.70;;;11.90;62.85
35307;BME280;21420;52.196;21.416;2023-03-24T07:16:17;99439.83;;;11.95;62.86
35307;BME280;21420;52.196;21.416;2023-03-24T07:18:46;99442.95;;;12.00;62.84
35307;BME280;21420;52.196;21.416;2023-03-24T07:21:14;99442.84;;;12.07;62.97
35307;BME280;21420;52.196;21.416;2023-03-24T07:23:41;99444.90;;;12.15;62.79
35307;BME280;21420;52.196;21.416;2023-03-24T07:26:11;99445.78;;;12.21;62.76
35307;BME280;21420;52.196;21.416;2023-03-24T07:28:47;99447.19;;;12.26;62.90
35307;BME280;21420;52.196;21.416;2023-03-24T07:31:40;99448.72;;;12.34;62.81
35307;BME280;21420;52.196;21.416;2023-03-24T07:34:09;99451.37;;;12.43;63.02
35307;BME280;21420;52.196;21.416;2023-03-24T07:36:38;99452.36;;;12.54;62.90
35307;BME280;21420;52.196;21.416;2023-03-24T07:39:07;99448.88;;;12.62;62.90
35307;BME280;21420;52.196;21.416;2023-03-24T07:41:35;99451.25;;;12.70;62.82
35307;BME280;21420;52.196;21.416;2023-03-24T07:44:07;99450.38;;;12.75;62.77
35307;BME280;21420;52.196;21.416;2023-03-24T07:47:04;99450.75;;;12.80;62.76
35307;BME280;21420;52.196;21.416;2023-03-24T07:49:31;99451.90;;;12.83;62.75
35307;BME280;21420;52.196;21.416;2023-03-24T07:52:04;99454.05;;;12.86;62.69
35307;BME280;21420;52.196;21.416;2023-03-24T07:54:43;99455.02;;;12.88;62.72
35307;BME280;21420;52.196;21.416;2023-03-24T07:57:21;99455.34;;;12.89;62.53
35307;BME280;21420;52.196;21.416;2023-03-24T07:59:49;99450.73;;;12.85;62.36
35307;BME280;21420;52.196;21.416;2023-03-24T08:02:34;99447.95;;;12.80;62.36
35307;BME280;21420;52.196;21.416;2023-03-24T08:05:22;99450.26;;;12.71;62.13
35307;BME280;21420;52.196;21.416;2023-03-24T08:08:00;99447.65;;;12.58;62.25
35307;BME280;21420;52.196;21.416;2023-03-24T08:10:28;99442.45;;;12.44;62.32
35307;BME280;21420;52.196;21.416;2023-03-24T08:12:57;99441.19;;;12.29;62.04
35307;BME280;21420;52.196;21.416;2023-03-24T08:15:25;99437.84;;;12.04;62.09
35307;BME280;21420;52.196;21.416;2023-03-24T08:17:54;99441.44;;;11.79;62.30
35307;BME280;21420;52.196;21.416;2023-03-24T08:20:22;99442.52;;;11.61;62.41
35307;BME280;21420;52.196;21.416;2023-03-24T08:22:54;99441.71;;;11.51;62.44
35307;BME280;21420;52.196;21.416;2023-03-24T08:25:24;99439.38;;;11.47;62.64
35307;BME280;21420;52.196;21.416;2023-03-24T08:27:51;99435.48;;;11.43;62.69
35307;BME280;21420;52.196;21.416;2023-03-24T08:30:21;99431.98;;;11.41;62.81
35307;BME280;21420;52.196;21.416;2023-03-24T08:32:53;99428.36;;;11.40;62.85
35307;BME280;21420;52.196;21.416;2023-03-24T08:35:32;99427.30;;;11.37;63.17
35307;BME280;21420;52.196;21.416;2023-03-24T08:38:00;99422.52;;;11.41;63.28
35307;BME280;21420;52.196;21.416;2023-03-24T08:40:33;99417.15;;;11.44;63.46
35307;BME280;21420;52.196;21.416;2023-03-24T08:43:03;99414.84;;;11.45;63.37
35307;BME280;21420;52.196;21.416;2023-03-24T08:45:31;99409.33;;;11.53;63.64
35307;BME280;21420;52.196;21.416;2023-03-24T08:48:02;99402.61;;;11.59;63.74
35307;BME280;21420;52.196;21.416;2023-03-24T08:50:32;99403.14;;;11.63;63.75
35307;BME280;21420;52.196;21.416;2023-03-24T08:53:01;99393.83;;;11.69;63.96
35307;BME280;21420;52.196;21.416;2023-03-24T08:55:30;99386.05;;;11.76;63.98
35307;BME280;21420;52.196;21.416;2023-03-24T08:57:58;99384.89;;;11.87;64.08
35307;BME280;21420;52.196;21.416;2023-03-24T09:00:25;99378.49;;;11.98;64.25
35307;BME280;21420;52.196;21.416;2023-03-24T09:02:55;99373.95;;;12.09;64.24
35307;BME280;21420;52.196;21.416;2023-03-24T09:05:23;99370.95;;;12.19;64.40
35307;BME280;21420;52.196;21.416;2023-03-24T09:08:11;99366.76;;;12.34;64.57
35307;BME280;21420;52.196;21.416;2023-03-24T09:10:39;99364.88;;;12.40;64.34
35307;BME280;21420;52.196;21.416;2023-03-24T09:13:06;99357.35;;;12.41;64.34
35307;BME280;21420;52.196;21.416;2023-03-24T09:15:36;99350.38;;;12.40;64.33
35307;BME280;21420;52.196;21.416;2023-03-24T09:18:03;99337.60;;;12.41;64.72
35307;BME280;21420;52.196;21.416;2023-03-24T09:20:31;99332.92;;;12.42;64.59
35307;BME280;21420;52.196;21.416;2023-03-24T09:22:57;99324.94;;;12.44;64.51
35307;BME280;21420;52.196;21.416;2023-03-24T09:25:24;99329.05;;;12.46;64.63
35307;BME280;21420;52.196;21.416;2023-03-24T09:27:51;99329.49;;;12.52;64.70
35307;BME280;21420;52.196;21.416;2023-03-24T09:30:23;99325.17;;;12.59;64.80
35307;BME280;21420;52.196;21.416;2023-03-24T09:32:50;99319.77;;;12.66;64.97
35307;BME280;21420;52.196;21.416;2023-03-24T09:35:17;99318.65;;;12.78;65.17
35307;BME280;21420;52.196;21.416;2023-03-24T09:37:44;99315.58;;;12.92;65.24
35307;BME280;21420;52.196;21.416;2023-03-24T09:40:22;99312.86;;;13.13;65.42
35307;BME280;21420;52.196;21.416;2023-03-24T09:45:49;99300.65;;;14.20;66.06
35307;BME280;21420;52.196;21.416;2023-03-24T09:51:02;99291.05;;;16.74;66.63
35307;BME280;21420;52.196;21.416;2023-03-24T09:53:46;99284.84;;;17.30;65.71
35307;BME280;21420;52.196;21.416;2023-03-24T09:56:18;99277.45;;;17.87;65.18
35307;BME280;21420;52.196;21.416;2023-03-24T09:59:00;99276.59;;;18.40;64.92
35307;BME280;21420;52.196;21.416;2023-03-24T10:01:41;99278.84;;;18.75;63.82
35307;BME280;21420;52.196;21.416;2023-03-24T10:04:19;99278.10;;;18.59;63.21
35307;BME280;21420;52.196;21.416;2023-03-24T10:06:48;99276.11;;;18.16;62.32
35307;BME280;21420;52.196;21.416;2023-03-24T10:09:25;99271.71;;;17.74;62.09
35307;BME280;21420;52.196;21.416;2023-03-24T10:20:51;99256.78;;;16.90;62.66
35307;BME280;21420;52.196;21.416;2023-03-24T10:26:23;99242.85;;;16.68;62.78
35307;BME280;21420;52.196;21.416;2023-03-24T10:31:32;99247.13;;;16.50;62.62
35307;BME280;21420;52.196;21.416;2023-03-24T10:34:00;99251.30;;;16.38;62.85
35307;BME280;21420;52.196;21.416;2023-03-24T10:36:27;99250.43;;;16.38;62.73
35307;BME280;21420;52.196;21.416;2023-03-24T10:38:54;99246.08;;;16.38;63.17
35307;BME280;21420;52.196;21.416;2023-03-24T10:41:27;99244.52;;;16.37;63.08
35307;BME280;21420;52.196;21.416;2023-03-24T10:43:56;99239.85;;;16.39;63.16
35307;BME280;21420;52.196;21.416;2023-03-24T10:46:26;99241.51;;;16.41;63.16
35307;BME280;21420;52.196;21.416;2023-03-24T10:51:37;99242.34;;;16.31;63.06
35307;BME280;21420;52.196;21.416;2023-03-24T10:56:41;99236.09;;;15.93;62.50
35307;BME280;21420;52.196;21.416;2023-03-24T10:59:23;99236.89;;;15.54;62.26
35307;BME280;21420;52.196;21.416;2023-03-24T11:04:37;99233.08;;;14.59;62.44
35307;BME280;21420;52.196;21.416;2023-03-24T11:07:21;99229.95;;;14.43;62.92
35307;BME280;21420;52.196;21.416;2023-03-24T11:09:59;99221.60;;;14.37;63.18
35307;BME280;21420;52.196;21.416;2023-03-24T11:12:30;99220.96;;;14.33;63.29
35307;BME280;21420;52.196;21.416;2023-03-24T11:17:56;99214.38;;;14.17;63.33
35307;BME280;21420;52.196;21.416;2023-03-24T11:20:33;99216.25;;;14.13;63.38
35307;BME280;21420;52.196;21.416;2023-03-24T11:23:18;99211.84;;;14.10;63.35
35307;BME280;21420;52.196;21.416;2023-03-24T11:28:40;99208.52;;;14.08;63.52
35307;BME280;21420;52.196;21.416;2023-03-24T11:31:10;99206.16;;;14.07;63.75
35307;BME280;21420;52.196;21.416;2023-03-24T11:34:02;99199.80;;;14.06;63.81
35307;BME280;21420;52.196;21.416;2023-03-24T11:36:55;99195.38;;;14.06;63.94
35307;BME280;21420;52.196;21.416;2023-03-24T11:39:25;99192.40;;;14.08;63.96
35307;BME280;21420;52.196;21.416;2023-03-24T11:42:13;99190.38;;;14.11;64.06
35307;BME280;21420;52.196;21.416;2023-03-24T11:47:28;99185.38;;;14.23;64.17
35307;BME280;21420;52.196;21.416;2023-03-24T11:52:52;99172.11;;;14.33;64.37
35307;BME280;21420;52.196;21.416;2023-03-24T11:56:02;99167.48;;;14.44;64.50
35307;BME280;21420;52.196;21.416;2023-03-24T12:02:15;99151.79;;;14.77;64.84
35307;BME280;21420;52.196;21.416;2023-03-24T12:10:59;99142.44;;;15.32;64.84
35307;BME280;21420;52.196;21.416;2023-03-24T12:13:45;99141.55;;;15.43;65.02
35307;BME280;21420;52.196;21.416;2023-03-24T12:16:47;99132.05;;;15.56;65.18
35307;BME280;21420;52.196;21.416;2023-03-24T12:22:18;99116.12;;;15.82;65.08
35307;BME280;21420;52.196;21.416;2023-03-24T12:25:34;99115.12;;;15.93;65.14
35307;BME280;21420;52.196;21.416;2023-03-24T12:31:03;99112.44;;;16.08;65.00
35307;BME280;21420;52.196;21.416;2023-03-24T12:38:50;99105.60;;;16.28;64.88
35307;BME280;21420;52.196;21.416;2023-03-24T12:47:11;99100.39;;;16.49;64.62
35307;BME280;21420;52.196;21.416;2023-03-24T12:50:20;99095.96;;;16.61;64.64
35307;BME280;21420;52.196;21.416;2023-03-24T12:58:17;99080.45;;;17.44;64.90
35307;BME280;21420;52.196;21.416;2023-03-24T13:03:32;99075.70;;;18.12;64.75
35307;BME280;21420;52.196;21.416;2023-03-24T13:06:11;99069.80;;;18.50;64.68
35307;BME280;21420;52.196;21.416;2023-03-24T13:08:48;99057.73;;;18.90;64.51
35307;BME280;21420;52.196;21.416;2023-03-24T13:11:22;99057.36;;;19.22;64.27
35307;BME280;21420;52.196;21.416;2023-03-24T13:14:02;99058.86;;;19.47;63.79
35307;BME280;21420;52.196;21.416;2023-03-24T13:16:33;99053.70;;;19.66;63.63
35307;BME280;21420;52.196;21.416;2023-03-24T13:19:03;99052.66;;;19.86;63.20
35307;BME280;21420;52.196;21.416;2023-03-24T13:21:35;99045.74;;;19.94;63.08
35307;BME280;21420;52.196;21.416;2023-03-24T13:24:07;99045.54;;;20.07;62.91
35307;BME280;21420;52.196;21.416;2023-03-24T13:26:48;99041.84;;;20.01;62.35
35307;BME280;21420;52.196;21.416;2023-03-24T13:35:31;99043.42;;;20.12;62.14
35307;BME280;21420;52.196;21.416;2023-03-24T13:41:05;99036.59;;;20.18;61.81
35307;BME280;21420;52.196;21.416;2023-03-24T13:43:34;99034.78;;;20.11;61.50
35307;BME280;21420;52.196;21.416;2023-03-24T13:46:05;99026.36;;;20.05;61.38
35307;BME280;21420;52.196;21.416;2023-03-24T13:51:10;99020.95;;;19.84;61.09
35307;BME280;21420;52.196;21.416;2023-03-24T13:54:08;99012.61;;;19.70;61.09
35307;BME280;21420;52.196;21.416;2023-03-24T13:56:40;99016.92;;;19.61;61.18
35307;BME280;21420;52.196;21.416;2023-03-24T13:59:22;99011.71;;;19.61;61.19
35307;BME280;21420;52.196;21.416;2023-03-24T14:05:05;99010.55;;;19.48;60.82
35307;BME280;21420;52.196;21.416;2023-03-24T14:13:00;99001.06;;;19.35;60.80
35307;BME280;21420;52.196;21.416;2023-03-24T14:15:41;98995.86;;;19.37;60.80
35307;BME280;21420;52.196;21.416;2023-03-24T14:25:55;98980.79;;;19.45;60.57
35307;BME280;21420;52.196;21.416;2023-03-24T14:28:43;98977.05;;;19.42;60.32
35307;BME280;21420;52.196;21.416;2023-03-24T14:39:08;98972.70;;;19.23;60.05
35307;BME280;21420;52.196;21.416;2023-03-24T14:41:41;98968.98;;;19.19;60.09
35307;BME280;21420;52.196;21.416;2023-03-24T14:44:10;98966.13;;;19.15;60.08
35307;BME280;21420;52.196;21.416;2023-03-24T14:46:42;98963.61;;;19.10;59.80
35307;BME280;21420;52.196;21.416;2023-03-24T14:49:20;98961.11;;;19.04;59.75
35307;BME280;21420;52.196;21.416;2023-03-24T14:52:10;98954.45;;;18.97;59.73
35307;BME280;21420;52.196;21.416;2023-03-24T14:54:49;98949.55;;;18.92;59.75
35307;BME280;21420;52.196;21.416;2023-03-24T14:57:31;98946.87;;;18.88;59.69
35307;BME280;21420;52.196;21.416;2023-03-24T15:02:38;98933.29;;;18.86;59.72
35307;BME280;21420;52.196;21.416;2023-03-24T15:07:44;98931.23;;;18.85;59.61
35307;BME280;21420;52.196;21.416;2023-03-24T15:10:16;98928.79;;;18.85;59.51
35307;BME280;21420;52.196;21.416;2023-03-24T15:12:45;98927.77;;;18.84;59.55
35307;BME280;21420;52.196;21.416;2023-03-24T15:15:15;98925.38;;;18.81;59.51
35307;BME280;21420;52.196;21.416;2023-03-24T15:17:43;98917.20;;;18.77;59.35
35307;BME280;21420;52.196;21.416;2023-03-24T15:20:26;98915.61;;;18.72;59.54
35307;BME280;21420;52.196;21.416;2023-03-24T15:22:54;98916.77;;;18.69;59.27
35307;BME280;21420;52.196;21.416;2023-03-24T15:25:25;98912.95;;;18.67;59.26
35307;BME280;21420;52.196;21.416;2023-03-24T15:27:56;98909.63;;;18.63;59.17
35307;BME280;21420;52.196;21.416;2023-03-24T15:30:27;98907.65;;;18.59;59.12
35307;BME280;21420;52.196;21.416;2023-03-24T15:32:54;98905.29;;;18.54;59.20
35307;BME280;21420;52.196;21.416;2023-03-24T15:35:22;98903.65;;;18.48;59.21
35307;BME280;21420;52.196;21.416;2023-03-24T15:37:55;98898.27;;;18.44;58.92
35307;BME280;21420;52.196;21.416;2023-03-24T15:42:57;98893.54;;;18.34;59.00
35307;BME280;21420;52.196;21.416;2023-03-24T15:45:33;98891.38;;;18.30;58.95
35307;BME280;21420;52.196;21.416;2023-03-24T15:48:07;98890.75;;;18.26;58.86
35307;BME280;21420;52.196;21.416;2023-03-24T15:50:39;98892.51;;;18.22;58.80
35307;BME280;21420;52.196;21.416;2023-03-24T15:55:41;98891.26;;;18.12;58.78
35307;BME280;21420;52.196;21.416;2023-03-24T16:00:51;98888.43;;;18.01;58.71
35307;BME280;21420;52.196;21.416;2023-03-24T16:03:20;98886.39;;;17.96;58.70
35307;BME280;21420;52.196;21.416;2023-03-24T16:05:54;98886.16;;;17.91;58.72
35307;BME280;21420;52.196;21.416;2023-03-24T16:11:01;98881.61;;;17.83;58.86
35307;BME280;21420;52.196;21.416;2023-03-24T16:13:30;98888.16;;;17.77;58.73
35307;BME280;21420;52.196;21.416;2023-03-24T16:16:35;98879.14;;;17.73;58.73
35307;BME280;21420;52.196;21.416;2023-03-24T16:19:03;98873.00;;;17.67;58.60
35307;BME280;21420;52.196;21.416;2023-03-24T16:21:31;98869.89;;;17.63;58.65
35307;BME280;21420;52.196;21.416;2023-03-24T16:23:58;98864.45;;;17.57;58.51
35307;BME280;21420;52.196;21.416;2023-03-24T16:26:31;98865.40;;;17.52;58.51
35307;BME280;21420;52.196;21.416;2023-03-24T16:29:12;98864.31;;;17.46;58.60
35307;BME280;21420;52.196;21.416;2023-03-24T16:31:44;98867.27;;;17.39;58.66
35307;BME280;21420;52.196;21.416;2023-03-24T16:34:15;98864.92;;;17.32;58.52